createdAt,value
2022-08-07T00:02:39.939Z,14.23
2022-08-07T00:05:28.758Z,14.13
2022-08-07T00:08:12.637Z,13.73
2022-08-07T00:10:58.326Z,14.40
2022-08-07T00:13:44.997Z,13.77
2022-08-07T00:16:29.727Z,14.00
2022-08-07T00:19:21.578Z,13.97
2022-08-07T00:22:09.071Z,13.20
2022-08-07T00:24:56.711Z,14.10
2022-08-07T00:27:53.125Z,13.87
2022-08-07T00:30:37.193Z,13.67
2022-08-07T00:33:26.500Z,14.13
2022-08-07T00:36:11.148Z,13.53
2022-08-07T00:38:55.173Z,14.37
2022-08-07T00:41:45.408Z,14.17
2022-08-07T00:44:38.351Z,13.37
2022-08-07T00:48:16.292Z,14.07
2022-08-07T00:50:46.097Z,13.93
2022-08-07T00:53:38.878Z,13.80
2022-08-07T00:56:33.953Z,14.47
2022-08-07T00:59:17.634Z,13.53
2022-08-07T01:02:04.030Z,14.50
2022-08-07T01:04:52.324Z,13.87
2022-08-07T01:07:37.737Z,13.20
2022-08-07T01:10:21.131Z,14.43
2022-08-07T01:13:04.346Z,14.67
2022-08-07T01:16:05.712Z,14.47
2022-08-07T01:18:49.447Z,14.10
2022-08-07T01:21:36.892Z,14.10
2022-08-07T01:24:21.652Z,14.30
2022-08-07T01:27:06.149Z,13.40
2022-08-07T01:30:06.021Z,14.60
2022-08-07T01:32:49.327Z,13.90
2022-08-07T01:35:53.165Z,13.97
2022-08-07T01:38:38.072Z,13.93
2022-08-07T01:41:26.239Z,14.50
2022-08-07T01:44:11.671Z,13.30
2022-08-07T01:46:56.512Z,14.03
2022-08-07T01:49:39.637Z,13.60
2022-08-07T01:52:27.121Z,14.07
2022-08-07T01:55:22.047Z,14.10
2022-08-07T01:58:29.358Z,14.63
2022-08-07T02:01:44.771Z,14.07
2022-08-07T02:04:30.331Z,14.20
2022-08-07T02:07:15.825Z,14.37
2022-08-07T02:10:00.315Z,14.70
2022-08-07T02:12:50.078Z,13.83
2022-08-07T02:15:35.321Z,14.73
2022-08-07T02:18:20.885Z,15.77
2022-08-07T02:21:13.875Z,18.07
2022-08-07T02:24:01.618Z,17.93
2022-08-07T02:26:48.632Z,17.70
2022-08-07T02:29:36.784Z,16.10
2022-08-07T02:32:29.941Z,15.63
2022-08-07T02:35:20.214Z,16.40
2022-08-07T02:38:06.512Z,16.50
2022-08-07T02:40:55.302Z,15.80
2022-08-07T02:43:47.640Z,16.20
2022-08-07T02:46:36.958Z,16.67
2022-08-07T02:49:58.965Z,17.10
2022-08-07T02:52:37.391Z,16.33
2022-08-07T02:55:28.809Z,16.93
2022-08-07T02:58:29.532Z,17.03
2022-08-07T03:01:36.540Z,16.77
2022-08-07T03:04:25.458Z,16.67
2022-08-07T03:07:10.506Z,17.60
2022-08-07T03:09:54.723Z,18.03
2022-08-07T03:12:38.967Z,17.60
2022-08-07T03:15:47.418Z,16.50
2022-08-07T03:18:34.808Z,17.40
2022-08-07T03:21:20.953Z,16.73
2022-08-07T03:24:19.990Z,17.00
2022-08-07T03:27:10.296Z,17.17
2022-08-07T03:29:54.341Z,16.60
2022-08-07T03:32:48.898Z,16.70
2022-08-07T03:35:43.691Z,16.63
2022-08-07T03:38:35.414Z,16.33
2022-08-07T03:41:18.790Z,16.43
2022-08-07T03:44:31.945Z,16.57
2022-08-07T03:47:18.150Z,16.27
2022-08-07T03:50:01.704Z,16.33
2022-08-07T03:52:46.321Z,16.67
2022-08-07T03:55:57.724Z,16.37
2022-08-07T03:59:08.386Z,16.37
2022-08-07T04:01:45.651Z,17.33
2022-08-07T04:04:29.208Z,17.30
2022-08-07T04:07:17.767Z,16.33
2022-08-07T04:10:06.893Z,16.30
2022-08-07T04:13:00.486Z,17.43
2022-08-07T04:15:46.006Z,16.77
2022-08-07T04:18:59.067Z,15.80
2022-08-07T04:21:36.369Z,15.87
2022-08-07T04:24:30.582Z,15.47
2022-08-07T04:27:25.329Z,15.90
2022-08-07T04:30:21.229Z,16.10
2022-08-07T04:33:15.964Z,16.50
2022-08-07T04:35:59.729Z,15.77
2022-08-07T04:38:42.936Z,16.20
2022-08-07T04:41:26.141Z,15.20
2022-08-07T04:44:11.427Z,16.03
2022-08-07T04:47:08.682Z,15.87
2022-08-07T04:50:04.098Z,16.23
2022-08-07T04:52:54.855Z,16.23
2022-08-07T04:58:09.385Z,16.23
2022-08-07T05:00:07.884Z,15.73
2022-08-07T05:02:03.135Z,16.33
2022-08-07T05:04:54.973Z,15.83
2022-08-07T05:07:51.752Z,16.40
2022-08-07T05:10:45.325Z,16.27
2022-08-07T05:14:54.219Z,15.10
2022-08-07T05:16:57.235Z,15.13
2022-08-07T05:19:50.232Z,15.17
2022-08-07T05:22:37.241Z,15.97
2022-08-07T05:25:36.706Z,16.70
2022-08-07T05:28:29.008Z,15.80
2022-08-07T05:31:16.576Z,16.63
2022-08-07T05:34:04.556Z,16.30
2022-08-07T05:36:53.183Z,16.33
2022-08-07T05:40:16.687Z,16.33
2022-08-07T05:42:41.143Z,15.03
2022-08-07T05:45:46.956Z,15.33
2022-08-07T05:48:30.689Z,15.27
2022-08-07T05:51:18.177Z,14.80
2022-08-07T05:54:12.100Z,14.13
2022-08-07T05:57:10.563Z,14.87
2022-08-07T05:59:58.200Z,14.50
2022-08-07T06:02:42.257Z,13.90
2022-08-07T06:05:28.815Z,13.87
2022-08-07T06:08:30.937Z,14.10
2022-08-07T06:11:19.425Z,13.43
2022-08-07T06:14:12.076Z,13.60
2022-08-07T06:16:57.965Z,13.60
2022-08-07T06:19:52.192Z,13.87
2022-08-07T06:22:50.771Z,13.57
2022-08-07T06:25:54.794Z,13.87
2022-08-07T06:28:52.909Z,13.87
2022-08-07T06:31:46.937Z,13.07
2022-08-07T06:34:33.376Z,13.77
2022-08-07T06:37:19.077Z,13.53
2022-08-07T06:40:13.535Z,12.97
2022-08-07T06:43:07.262Z,13.30
2022-08-07T06:46:06.435Z,12.97
2022-08-07T06:48:56.962Z,13.23
2022-08-07T06:51:50.100Z,14.23
2022-08-07T06:55:31.420Z,13.70
2022-08-07T06:57:43.566Z,13.50
2022-08-07T07:00:39.186Z,14.57
2022-08-07T07:03:48.972Z,14.23
2022-08-07T07:06:30.589Z,14.07
2022-08-07T07:09:21.168Z,15.17
2022-08-07T07:12:26.698Z,14.23
2022-08-07T07:15:24.123Z,14.50
2022-08-07T07:18:19.133Z,14.33
2022-08-07T07:21:27.355Z,12.47
2022-08-07T07:24:29.029Z,14.30
2022-08-07T07:27:18.266Z,13.60
2022-08-07T07:30:08.895Z,13.63
2022-08-07T07:32:55.977Z,13.77
2022-08-07T07:35:50.615Z,14.07
2022-08-07T07:38:47.545Z,13.57
2022-08-07T07:42:01.826Z,12.93
2022-08-07T07:44:39.869Z,12.50
2022-08-07T07:47:25.884Z,12.77
2022-08-07T07:50:32.740Z,13.73
2022-08-07T07:53:23.143Z,17.93
2022-08-07T07:56:11.981Z,12.27
2022-08-07T07:58:57.351Z,13.23
2022-08-07T08:02:03.775Z,13.23
2022-08-07T08:04:50.451Z,11.73
2022-08-07T08:07:42.159Z,11.55
2022-08-07T08:10:38.691Z,12.07
2022-08-07T08:13:26.245Z,12.38
2022-08-07T08:16:25.141Z,12.55
2022-08-07T08:20:15.841Z,11.57
2022-08-07T08:22:36.714Z,12.00
2022-08-07T08:26:04.617Z,11.98
2022-08-07T08:28:53.539Z,10.85
2022-08-07T08:32:16.786Z,12.57
2022-08-07T08:34:46.122Z,12.13
2022-08-07T08:38:00.901Z,16.17
2022-08-07T08:40:43.918Z,11.45
2022-08-07T08:43:42.185Z,11.55
2022-08-07T08:46:38.246Z,12.18
2022-08-07T08:49:46.365Z,11.85
2022-08-07T08:52:40.830Z,12.68
2022-08-07T08:55:53.713Z,13.30
2022-08-07T08:58:54.474Z,12.40
2022-08-07T09:01:46.543Z,12.53
2022-08-07T09:04:42.782Z,12.80
2022-08-07T09:07:46.124Z,12.27
2022-08-07T09:10:39.137Z,12.60
2022-08-07T09:13:44.547Z,11.87
2022-08-07T09:16:37.902Z,11.50
2022-08-07T09:19:51.752Z,12.00
2022-08-07T09:24:33.795Z,12.73
2022-08-07T09:26:10.265Z,15.23
2022-08-07T09:30:01.793Z,11.60
2022-08-07T09:32:17.086Z,20.33
2022-08-07T09:36:00.974Z,12.60
2022-08-07T09:38:26.777Z,10.77
2022-08-07T09:41:19.630Z,10.05
2022-08-07T09:44:32.828Z,9.65
2022-08-07T09:48:01.523Z,9.27
2022-08-07T09:50:53.577Z,11.05
2022-08-07T09:53:53.718Z,10.45
2022-08-07T09:57:22.132Z,10.27
2022-08-07T10:00:14.743Z,10.30
2022-08-07T10:04:03.303Z,10.00
2022-08-07T10:06:39.884Z,11.43
2022-08-07T10:10:01.148Z,11.07
2022-08-07T10:13:03.723Z,10.97
2022-08-07T10:15:55.592Z,10.43
2022-08-07T10:18:59.246Z,9.67
2022-08-07T10:22:15.811Z,10.77
2022-08-07T10:25:20.866Z,9.25
2022-08-07T10:28:24.313Z,10.37
2022-08-07T10:31:38.787Z,9.75
2022-08-07T10:34:38.363Z,10.30
2022-08-07T10:37:48.193Z,10.33
2022-08-07T10:40:44.437Z,11.40
2022-08-07T10:43:34.655Z,10.77
2022-08-07T10:46:24.828Z,9.87
2022-08-07T10:49:15.854Z,10.63
2022-08-07T10:52:14.091Z,10.30
2022-08-07T10:55:07.940Z,11.33
2022-08-07T10:58:24.939Z,11.87
2022-08-07T11:01:35.759Z,15.47
2022-08-07T11:04:47.538Z,14.57
2022-08-07T11:07:58.833Z,12.80
2022-08-07T11:10:57.825Z,13.30
2022-08-07T11:14:46.401Z,13.43
2022-08-07T11:17:01.352Z,13.23
2022-08-07T11:19:51.011Z,13.10
2022-08-07T11:22:45.619Z,15.60
2022-08-07T11:25:36.056Z,11.87
2022-08-07T11:28:37.851Z,13.10
2022-08-07T11:31:33.301Z,12.17
2022-08-07T11:34:23.343Z,11.67
2022-08-07T11:37:14.398Z,12.87
2022-08-07T11:40:12.012Z,13.27
2022-08-07T11:43:09.364Z,15.27
2022-08-07T11:46:22.290Z,16.77
2022-08-07T11:49:51.345Z,12.70
2022-08-07T11:52:51.641Z,13.47
2022-08-07T11:56:24.891Z,14.53
2022-08-07T12:00:08.816Z,14.47
2022-08-07T12:02:52.720Z,13.37
2022-08-07T12:05:49.560Z,13.37
2022-08-07T12:08:39.311Z,14.20
2022-08-07T12:11:32.485Z,17.00
2022-08-07T12:14:20.866Z,15.00
2022-08-07T12:17:08.762Z,14.77
2022-08-07T12:20:30.486Z,16.60
2022-08-07T12:24:04.762Z,15.77
2022-08-07T12:26:35.494Z,16.13
2022-08-07T12:29:38.333Z,15.97
2022-08-07T12:32:31.200Z,15.23
2022-08-07T12:35:20.187Z,15.30
2022-08-07T12:38:16.882Z,21.87
2022-08-07T12:41:15.119Z,14.23
2022-08-07T12:44:04.005Z,16.40
2022-08-07T12:47:01.882Z,14.27
2022-08-07T12:50:04.590Z,14.37
2022-08-07T12:53:05.166Z,13.60
2022-08-07T12:56:11.543Z,13.50
2022-08-07T12:58:58.083Z,13.97
2022-08-07T13:01:55.716Z,16.47
2022-08-07T13:05:10.318Z,13.53
2022-08-07T13:08:24.122Z,13.60
2022-08-07T13:11:25.423Z,16.67
2022-08-07T13:14:22.080Z,15.00
2022-08-07T13:17:13.190Z,14.30
2022-08-07T13:20:08.906Z,13.57
2022-08-07T13:23:03.918Z,15.63
2022-08-07T13:26:16.085Z,16.07
2022-08-07T13:29:11.993Z,12.80
2022-08-07T13:32:06.238Z,13.63
2022-08-07T13:35:09.305Z,18.77
2022-08-07T13:38:01.047Z,15.37
2022-08-07T13:40:51.036Z,13.67
2022-08-07T13:43:44.777Z,13.37
2022-08-07T13:46:49.522Z,14.67
2022-08-07T13:50:33.119Z,14.17
2022-08-07T13:52:46.887Z,15.30
2022-08-07T13:55:33.993Z,12.93
2022-08-07T13:58:39.027Z,16.63
2022-08-07T14:01:33.233Z,17.10
2022-08-07T14:04:38.081Z,15.53
2022-08-07T14:07:33.544Z,14.73
2022-08-07T14:10:24.533Z,15.37
2022-08-07T14:13:16.260Z,15.77
2022-08-07T14:16:06.239Z,14.67
2022-08-07T14:19:04.742Z,14.03
2022-08-07T14:22:03.134Z,16.27
2022-08-07T14:24:52.601Z,14.73
2022-08-07T14:28:10.557Z,14.63
2022-08-07T14:30:51.971Z,15.57
2022-08-07T14:33:45.256Z,14.80
2022-08-07T14:36:35.041Z,15.90
2022-08-07T14:40:16.042Z,16.20
2022-08-07T14:42:32.271Z,15.43
2022-08-07T14:45:21.691Z,15.30
2022-08-07T14:48:08.796Z,15.07
2022-08-07T14:51:16.306Z,14.67
2022-08-07T14:54:31.209Z,14.70
2022-08-07T14:57:11.082Z,13.90
2022-08-07T15:00:05.322Z,13.00
2022-08-07T15:02:56.905Z,13.90
2022-08-07T15:05:55.354Z,14.10
2022-08-07T15:08:54.742Z,13.50
2022-08-07T15:11:50.790Z,14.70
2022-08-07T15:14:57.808Z,14.63
2022-08-07T15:17:55.134Z,14.40
2022-08-07T15:20:55.050Z,14.23
2022-08-07T15:25:03.065Z,16.07
2022-08-07T15:27:01.468Z,14.37
2022-08-07T15:33:03.675Z,15.77
2022-08-07T15:38:59.638Z,14.87
2022-08-07T15:42:46.080Z,15.30
2022-08-07T15:45:09.522Z,15.10
2022-08-07T15:51:12.014Z,15.93
2022-08-07T15:54:00.005Z,15.83
2022-08-07T15:56:48.166Z,16.43
2022-08-07T15:59:40.005Z,17.00
2022-08-07T16:02:31.151Z,15.67
2022-08-07T16:05:17.644Z,14.97
2022-08-07T16:08:33.706Z,14.53
2022-08-07T16:11:27.360Z,15.63
2022-08-07T16:14:17.262Z,14.80
2022-08-07T16:17:16.266Z,16.27
2022-08-07T16:20:39.664Z,14.90
2022-08-07T16:23:54.603Z,13.90
2022-08-07T16:26:59.206Z,15.03
2022-08-07T16:30:29.618Z,15.87
2022-08-07T16:34:02.860Z,15.13
2022-08-07T16:36:31.249Z,15.10
2022-08-07T16:39:48.682Z,15.03
2022-08-07T16:42:48.337Z,37.73
2022-08-07T16:46:47.621Z,19.07
2022-08-07T16:50:28.729Z,15.80
2022-08-07T16:52:55.412Z,15.90
2022-08-07T16:55:47.004Z,15.47
2022-08-07T16:59:14.793Z,15.53
2022-08-07T17:02:02.935Z,15.53
2022-08-07T17:05:00.832Z,16.60
2022-08-07T17:07:57.968Z,16.07
2022-08-07T17:14:19.333Z,15.93
2022-08-07T17:17:15.464Z,16.00
2022-08-07T17:20:14.081Z,17.40
2022-08-07T17:23:12.891Z,17.33
2022-08-07T17:26:24.052Z,18.13
2022-08-07T17:30:14.410Z,18.17
2022-08-07T17:32:30.344Z,19.33
2022-08-07T17:35:51.177Z,21.10
2022-08-07T17:38:34.102Z,20.87
2022-08-07T17:42:03.607Z,16.40
2022-08-07T17:44:34.130Z,16.27
2022-08-07T17:47:42.663Z,15.80
2022-08-07T17:50:46.955Z,15.60
2022-08-07T17:54:01.081Z,15.13
2022-08-07T17:56:52.592Z,14.93
2022-08-07T17:59:43.464Z,15.63
2022-08-07T18:02:33.732Z,16.80
2022-08-07T18:06:03.447Z,15.73
2022-08-07T18:09:01.232Z,15.67
2022-08-07T18:12:12.003Z,16.57
2022-08-07T18:15:01.085Z,16.70
2022-08-07T18:19:02.377Z,19.43
2022-08-07T18:21:37.189Z,20.33
2022-08-07T18:24:12.314Z,17.30
2022-08-07T18:27:39.189Z,16.00
2022-08-07T18:30:36.784Z,16.27
2022-08-07T18:33:58.507Z,16.43
2022-08-07T18:36:54.376Z,35.93
2022-08-07T18:40:08.172Z,23.23
2022-08-07T18:43:03.993Z,16.73
2022-08-07T18:46:24.567Z,15.73
2022-08-07T18:50:32.730Z,16.53
2022-08-07T18:52:55.008Z,17.50
2022-08-07T18:55:57.278Z,18.10
2022-08-07T18:58:54.463Z,17.93
2022-08-07T19:02:18.920Z,19.33
2022-08-07T19:05:10.460Z,18.30
2022-08-07T19:08:05.595Z,18.10
2022-08-07T19:10:57.047Z,17.93
2022-08-07T19:13:56.321Z,18.53
2022-08-07T19:17:04.537Z,17.73
2022-08-07T19:19:58.075Z,17.50
2022-08-07T19:22:55.647Z,18.30
2022-08-07T19:26:22.738Z,18.33
2022-08-07T19:30:54.832Z,18.33
2022-08-07T19:32:18.819Z,19.07
2022-08-07T19:35:12.493Z,17.80
2022-08-07T19:37:59.753Z,18.67
2022-08-07T19:40:49.711Z,18.27
2022-08-07T19:43:46.070Z,19.03
2022-08-07T19:46:41.076Z,18.63
2022-08-07T19:49:57.370Z,17.00
2022-08-07T19:52:42.533Z,17.07
2022-08-07T19:55:46.787Z,15.97
2022-08-07T19:58:34.409Z,15.73
2022-08-07T20:01:18.847Z,16.03
2022-08-07T20:04:08.588Z,15.00
2022-08-07T20:06:56.375Z,15.63
2022-08-07T20:10:37.369Z,16.27
2022-08-07T20:12:51.543Z,16.60
2022-08-07T20:15:39.015Z,15.50
2022-08-07T20:18:32.272Z,17.23
2022-08-07T20:21:22.469Z,16.60
2022-08-07T20:24:13.433Z,15.43
2022-08-07T20:26:59.505Z,16.23
2022-08-07T20:29:57.505Z,16.57
2022-08-07T20:32:46.701Z,16.03
2022-08-07T20:35:54.340Z,16.60
2022-08-07T20:38:53.338Z,15.67
2022-08-07T20:41:50.601Z,16.57
2022-08-07T20:44:39.165Z,16.70
2022-08-07T20:47:26.043Z,16.97
2022-08-07T20:50:30.502Z,15.63
2022-08-07T20:53:15.707Z,15.03
2022-08-07T20:56:02.626Z,15.60
2022-08-07T20:58:53.200Z,15.93
2022-08-07T21:01:45.807Z,15.33
2022-08-07T21:04:38.843Z,16.70
2022-08-07T21:07:23.361Z,16.40
2022-08-07T21:10:11.628Z,17.07
2022-08-07T21:12:58.422Z,16.93
2022-08-07T21:15:58.107Z,15.93
2022-08-07T21:18:45.972Z,16.47
2022-08-07T21:21:33.093Z,16.37
2022-08-07T21:24:48.045Z,16.03
2022-08-07T21:27:40.125Z,16.43
2022-08-07T21:30:41.885Z,17.37
2022-08-07T21:33:41.420Z,17.07
2022-08-07T21:36:35.837Z,16.33
2022-08-07T21:39:47.564Z,17.30
2022-08-07T21:42:46.064Z,16.97
2022-08-07T21:46:08.814Z,17.30
2022-08-07T21:48:56.711Z,17.53
2022-08-07T21:51:51.493Z,17.30
2022-08-07T21:54:56.017Z,17.80
2022-08-07T21:58:00.331Z,16.80
2022-08-07T22:00:54.172Z,17.13
2022-08-07T22:03:43.910Z,17.80
2022-08-07T22:06:32.579Z,18.17
2022-08-07T22:09:25.425Z,17.90
2022-08-07T22:12:15.550Z,16.30
2022-08-07T22:16:44.090Z,16.03
2022-08-07T22:18:25.325Z,16.70
2022-08-07T22:21:16.648Z,16.70
2022-08-07T22:24:10.662Z,16.33
2022-08-07T22:27:03.255Z,18.20
2022-08-07T22:29:53.377Z,16.53
2022-08-07T22:32:42.199Z,16.23
2022-08-07T22:35:40.311Z,16.20
2022-08-07T22:38:37.120Z,17.03
